createdAt,value
2017-06-11T00:00:07.695Z,21.14
2017-06-11T00:00:48.442Z,21.06
2017-06-11T00:01:28.951Z,21.16
2017-06-11T00:02:09.468Z,21.09
2017-06-11T00:02:49.975Z,21.12
2017-06-11T00:03:30.451Z,21.17
2017-06-11T00:04:10.985Z,21.19
2017-06-11T00:04:51.499Z,21.13
2017-06-11T00:05:32.019Z,21.07
2017-06-11T00:06:12.499Z,21.04
2017-06-11T00:06:53.002Z,21.09
2017-06-11T00:07:33.506Z,21.14
2017-06-11T00:08:13.973Z,21.12
2017-06-11T00:08:54.478Z,21.19
2017-06-11T00:09:34.949Z,21.14
2017-06-11T00:10:15.496Z,21.21
2017-06-11T00:10:55.983Z,21.17
2017-06-11T00:11:36.490Z,21.09
2017-06-11T00:12:17.050Z,21.1
2017-06-11T00:12:57.518Z,21.21
2017-06-11T00:13:37.996Z,21.09
2017-06-11T00:14:18.542Z,21.09
2017-06-11T00:14:59.005Z,21.03
2017-06-11T00:15:39.477Z,21.09
2017-06-11T00:16:19.976Z,20.98
2017-06-11T00:17:00.462Z,21.07
2017-06-11T00:17:40.966Z,21.06
2017-06-11T00:18:21.474Z,21.1
2017-06-11T00:19:01.988Z,21.06
2017-06-11T00:19:42.473Z,21.07
2017-06-11T00:20:22.950Z,21.09
2017-06-11T00:21:03.633Z,21.09
2017-06-11T00:21:43.933Z,21.04
2017-06-11T00:22:24.447Z,21.06
2017-06-11T00:23:04.920Z,21.07
2017-06-11T00:23:46.294Z,21.09
2017-06-11T00:24:26.805Z,21.01
2017-06-11T00:25:07.305Z,20.94
2017-06-11T00:25:47.866Z,20.99
2017-06-11T00:26:28.351Z,21.01
2017-06-11T00:27:08.830Z,20.94
2017-06-11T00:27:49.317Z,21.06
2017-06-11T00:28:29.807Z,21.1
2017-06-11T00:29:10.297Z,21.1
2017-06-11T00:29:50.841Z,21.04
2017-06-11T00:30:31.354Z,21.07
2017-06-11T00:31:11.829Z,21.04
2017-06-11T00:31:52.294Z,21.09
2017-06-11T00:32:32.819Z,21.09
2017-06-11T00:33:13.288Z,21.04
2017-06-11T00:33:53.798Z,21.03
2017-06-11T00:34:34.280Z,21.07
2017-06-11T00:35:14.748Z,21.07
2017-06-11T00:35:55.228Z,21.04
2017-06-11T00:36:35.735Z,21.06
2017-06-11T00:37:16.242Z,21.04
2017-06-11T00:37:56.756Z,20.85
2017-06-11T00:38:37.259Z,20.91
2017-06-11T00:39:17.747Z,20.87
2017-06-11T00:39:58.264Z,20.95
2017-06-11T00:40:38.782Z,20.98
2017-06-11T00:41:19.364Z,21.04
2017-06-11T00:41:59.783Z,21.03
2017-06-11T00:42:40.293Z,21.04
2017-06-11T00:43:20.766Z,21.07
2017-06-11T00:44:01.265Z,20.99
2017-06-11T00:44:41.751Z,21.07
2017-06-11T00:45:22.263Z,21.07
2017-06-11T00:46:02.746Z,21.01
2017-06-11T00:46:43.477Z,20.88
2017-06-11T00:47:23.930Z,20.88
2017-06-11T00:48:04.466Z,20.87
2017-06-11T00:48:44.988Z,20.91
2017-06-11T00:49:25.470Z,20.92
2017-06-11T00:50:05.964Z,20.97
2017-06-11T00:50:46.419Z,20.99
2017-06-11T00:51:26.944Z,21.06
2017-06-11T00:52:07.399Z,20.97
2017-06-11T00:52:47.969Z,20.98
2017-06-11T00:53:28.460Z,21.03
2017-06-11T00:54:08.911Z,21.01
2017-06-11T00:54:49.421Z,21.09
2017-06-11T00:55:29.861Z,20.98
2017-06-11T00:56:10.429Z,20.85
2017-06-11T00:56:50.915Z,20.94
2017-06-11T00:57:31.393Z,20.91
2017-06-11T00:58:11.918Z,20.99
2017-06-11T00:58:52.421Z,20.99
2017-06-11T00:59:32.947Z,20.99
2017-06-11T01:00:13.476Z,21.01
2017-06-11T01:00:53.871Z,21.01
2017-06-11T01:01:34.376Z,20.89
2017-06-11T01:02:14.900Z,20.92
2017-06-11T01:02:55.404Z,20.88
2017-06-11T01:03:35.935Z,20.98
2017-06-11T01:04:16.393Z,20.87
2017-06-11T01:04:56.878Z,20.84
2017-06-11T01:05:37.361Z,20.88
2017-06-11T01:06:17.903Z,20.84
2017-06-11T01:06:58.444Z,20.94
2017-06-11T01:07:38.896Z,20.92
2017-06-11T01:08:19.656Z,20.74
2017-06-11T01:09:00.147Z,20.82
2017-06-11T01:09:40.684Z,20.84
2017-06-11T01:10:21.217Z,20.88
2017-06-11T01:11:01.663Z,20.85
2017-06-11T01:11:42.224Z,20.98
2017-06-11T01:12:22.668Z,20.88
2017-06-11T01:13:03.182Z,20.89
2017-06-11T01:13:43.752Z,20.95
2017-06-11T01:14:24.212Z,20.89
2017-06-11T01:15:04.857Z,20.91
2017-06-11T01:15:45.316Z,20.87
2017-06-11T01:16:25.855Z,20.95
2017-06-11T01:17:06.393Z,20.95
2017-06-11T01:17:46.895Z,20.88
2017-06-11T01:18:27.365Z,20.85
2017-06-11T01:19:07.851Z,20.84
2017-06-11T01:19:48.351Z,20.89
2017-06-11T01:20:28.798Z,20.82
2017-06-11T01:21:09.313Z,20.8
2017-06-11T01:21:49.849Z,20.87
2017-06-11T01:22:30.360Z,20.89
2017-06-11T01:23:10.851Z,20.91
2017-06-11T01:23:51.354Z,20.88
2017-06-11T01:24:31.829Z,20.8
2017-06-11T01:25:12.364Z,20.84
2017-06-11T01:25:52.812Z,20.84
2017-06-11T01:26:33.361Z,20.82
2017-06-11T01:27:13.841Z,20.85
2017-06-11T01:27:54.320Z,20.84
2017-06-11T01:28:34.807Z,20.8
2017-06-11T01:29:15.312Z,20.82
2017-06-11T01:29:55.826Z,20.77
2017-06-11T01:30:36.313Z,20.77
2017-06-11T01:31:16.743Z,20.77
2017-06-11T01:31:57.239Z,20.8
2017-06-11T01:32:37.771Z,20.85
2017-06-11T01:33:18.297Z,20.84
2017-06-11T01:33:58.791Z,20.72
2017-06-11T01:34:39.232Z,20.73
2017-06-11T01:35:19.746Z,20.7
2017-06-11T01:36:00.224Z,20.72
2017-06-11T01:36:40.735Z,20.7
2017-06-11T01:37:21.244Z,20.66
2017-06-11T01:38:01.683Z,20.72
2017-06-11T01:38:42.207Z,20.72
2017-06-11T01:39:22.699Z,20.7
2017-06-11T01:40:03.194Z,20.69
2017-06-11T01:40:43.744Z,20.73
2017-06-11T01:41:24.228Z,20.77
2017-06-11T01:42:04.696Z,20.72
2017-06-11T01:42:45.153Z,20.73
2017-06-11T01:43:25.677Z,20.73
2017-06-11T01:44:06.225Z,20.73
2017-06-11T01:44:46.679Z,20.73
2017-06-11T01:45:27.184Z,20.74
2017-06-11T01:46:07.652Z,20.79
2017-06-11T01:46:48.134Z,20.74
2017-06-11T01:47:28.694Z,20.72
2017-06-11T01:48:09.214Z,20.72
2017-06-11T01:48:49.673Z,20.7
2017-06-11T01:49:30.183Z,20.77
2017-06-11T01:50:10.726Z,20.73
2017-06-11T01:50:51.176Z,20.8
2017-06-11T01:51:31.669Z,20.73
2017-06-11T01:52:12.152Z,20.72
2017-06-11T01:52:52.648Z,20.52
2017-06-11T01:53:33.192Z,20.64
2017-06-11T01:54:13.650Z,20.61
2017-06-11T01:54:54.134Z,20.73
2017-06-11T01:55:34.687Z,20.67
2017-06-11T01:56:15.126Z,20.59
2017-06-11T01:56:55.650Z,20.69
2017-06-11T01:57:36.118Z,20.67
2017-06-11T01:58:16.623Z,20.58
2017-06-11T01:58:57.111Z,20.57
2017-06-11T01:59:37.635Z,20.57
2017-06-11T02:00:18.095Z,20.62
2017-06-11T02:00:58.572Z,20.59
2017-06-11T02:01:39.061Z,20.58
2017-06-11T02:02:19.577Z,20.59
2017-06-11T02:03:00.080Z,20.57
2017-06-11T02:03:40.599Z,20.57
2017-06-11T02:04:21.104Z,20.55
2017-06-11T02:05:01.570Z,20.51
2017-06-11T02:05:42.096Z,20.48
2017-06-11T02:06:22.590Z,20.41
2017-06-11T02:07:03.072Z,20.5
2017-06-11T02:07:43.624Z,20.55
2017-06-11T02:08:24.131Z,20.43
2017-06-11T02:09:04.581Z,20.51
2017-06-11T02:11:18.305Z,20.55
2017-06-11T02:11:58.914Z,20.42
2017-06-11T02:13:46.407Z,20.36
2017-06-11T02:14:33.453Z,20.23
2017-06-11T02:15:13.985Z,20.2
2017-06-11T02:15:54.465Z,20.14
2017-06-11T02:16:35.006Z,20.17
2017-06-11T02:17:15.510Z,20.29
2017-06-11T02:17:56.023Z,20.23
2017-06-11T02:18:36.560Z,20.35
2017-06-11T02:19:17.044Z,20.38
2017-06-11T02:19:57.598Z,20.18
2017-06-11T02:20:38.061Z,20.13
2017-06-11T02:21:18.584Z,20.28
2017-06-11T02:21:59.140Z,20.32
2017-06-11T02:22:39.598Z,20.31
2017-06-11T02:23:20.116Z,20.28
2017-06-11T02:24:00.604Z,20.29
2017-06-11T02:24:41.139Z,20.38
2017-06-11T02:25:21.649Z,20.39
2017-06-11T02:26:02.138Z,20.36
2017-06-11T02:26:42.607Z,20.38
2017-06-11T02:27:23.105Z,20.43
2017-06-11T02:28:03.608Z,20.38
2017-06-11T02:28:44.136Z,20.33
2017-06-11T02:29:24.640Z,20.32
2017-06-11T02:30:05.174Z,20.29
2017-06-11T02:30:45.660Z,20.24
2017-06-11T02:31:26.204Z,20.29
2017-06-11T02:32:06.669Z,20.29
2017-06-11T02:32:47.196Z,20.28
2017-06-11T02:33:27.686Z,20.21
2017-06-11T02:34:08.215Z,20.2
2017-06-11T02:34:48.672Z,20.18
2017-06-11T02:35:29.243Z,20.24
2017-06-11T02:36:09.718Z,20.05
2017-06-11T02:36:50.242Z,20.06
2017-06-11T02:37:30.705Z,20.08
2017-06-11T02:38:11.258Z,19.99
2017-06-11T02:38:51.696Z,20.02
2017-06-11T02:39:32.211Z,20.06
2017-06-11T02:40:12.690Z,20.03
2017-06-11T02:40:53.190Z,20.08
2017-06-11T02:41:33.692Z,20.14
2017-06-11T02:42:14.162Z,20.14
2017-06-11T02:42:54.642Z,20.29
2017-06-11T02:43:35.170Z,20.29
2017-06-11T02:44:15.651Z,20.24
2017-06-11T02:44:56.195Z,20.26
2017-06-11T02:45:36.655Z,20.36
2017-06-11T02:46:17.132Z,20.33
2017-06-11T02:46:57.755Z,20.29
2017-06-11T02:47:38.231Z,20.31
2017-06-11T02:48:18.703Z,20.29
2017-06-11T02:48:59.200Z,20.2
2017-06-11T02:49:39.675Z,20.28
2017-06-11T02:50:20.206Z,20.26
2017-06-11T02:51:00.665Z,20.26
2017-06-11T02:51:41.163Z,20.17
2017-06-11T02:52:21.696Z,20.28
2017-06-11T02:53:02.194Z,20.18
2017-06-11T02:53:42.653Z,20.13
2017-06-11T02:54:23.139Z,20.21
2017-06-11T02:55:03.665Z,20.28
2017-06-11T02:55:44.185Z,20.17
2017-06-11T02:56:24.655Z,20.26
2017-06-11T02:57:05.133Z,20.2
2017-06-11T02:57:45.693Z,20.29
2017-06-11T02:58:26.127Z,20.26
2017-06-11T02:59:06.652Z,20.29
2017-06-11T02:59:47.166Z,20.2
2017-06-11T03:00:27.650Z,20.2
2017-06-11T03:01:08.136Z,20.31
2017-06-11T03:01:48.613Z,20.18
2017-06-11T03:02:29.108Z,20.18
2017-06-11T03:03:09.627Z,20.24
2017-06-11T03:03:50.111Z,20.13
2017-06-11T03:04:30.644Z,20.16
2017-06-11T03:05:11.133Z,20.2
2017-06-11T03:05:51.654Z,20.28
2017-06-11T03:06:32.156Z,20.17
2017-06-11T03:07:12.682Z,20.13
2017-06-11T03:07:53.150Z,20.03
2017-06-11T03:08:33.645Z,20.06
2017-06-11T03:09:14.140Z,20.2
2017-06-11T03:09:54.685Z,20.06
2017-06-11T03:10:35.205Z,20.05
2017-06-11T03:11:15.668Z,20.14
2017-06-11T03:11:56.191Z,20.16
2017-06-11T03:12:36.696Z,19.99
2017-06-11T03:13:17.148Z,20.02
2017-06-11T03:13:57.705Z,20.08
2017-06-11T03:14:38.157Z,20.08
2017-06-11T03:15:18.706Z,20.13
2017-06-11T03:15:59.161Z,20.06
2017-06-11T03:16:39.698Z,20.13
2017-06-11T03:17:20.146Z,20.2
2017-06-11T03:18:00.724Z,20.16
2017-06-11T03:18:41.196Z,20.06
2017-06-11T03:19:21.747Z,20.13
2017-06-11T03:20:02.233Z,20.02
2017-06-11T03:20:42.742Z,20.06
2017-06-11T03:21:23.234Z,20.1
2017-06-11T03:22:03.736Z,20.06
2017-06-11T03:22:44.236Z,20.1
2017-06-11T03:23:24.755Z,20.02
2017-06-11T03:24:05.237Z,20.05
2017-06-11T03:24:45.732Z,20.06
2017-06-11T03:25:26.219Z,20.13
2017-06-11T03:26:06.774Z,20.08
2017-06-11T03:26:47.236Z,19.95
2017-06-11T03:27:27.738Z,19.95
2017-06-11T03:28:08.212Z,19.92
2017-06-11T03:28:48.692Z,20.08
2017-06-11T03:29:29.189Z,19.94
2017-06-11T03:30:09.686Z,19.92
2017-06-11T03:30:50.211Z,19.88
2017-06-11T03:31:30.696Z,19.91
2017-06-11T03:32:11.230Z,19.99
2017-06-11T03:32:51.720Z,19.96
2017-06-11T03:33:32.229Z,19.91
2017-06-11T03:34:12.760Z,19.91
2017-06-11T03:34:53.203Z,19.91
2017-06-11T03:35:33.728Z,19.99
2017-06-11T03:36:14.169Z,19.98
2017-06-11T03:36:54.658Z,19.98
2017-06-11T03:37:35.191Z,19.96
2017-06-11T03:38:15.698Z,20.03
2017-06-11T03:38:56.186Z,20.14
2017-06-11T03:39:36.688Z,19.99
2017-06-11T03:40:17.167Z,19.95
2017-06-11T03:40:57.683Z,19.99
2017-06-11T03:41:38.180Z,20.05
2017-06-11T03:42:18.733Z,20.14
2017-06-11T03:42:59.225Z,20.1
2017-06-11T03:43:39.724Z,20.14
2017-06-11T03:44:20.228Z,20.13
2017-06-11T03:45:00.717Z,20.02
2017-06-11T03:45:41.180Z,20.21
2017-06-11T03:46:21.679Z,20.17
2017-06-11T03:47:02.307Z,20.11
2017-06-11T03:47:42.726Z,20.1
2017-06-11T03:48:23.183Z,20.02
2017-06-11T03:49:03.728Z,20.11
2017-06-11T03:49:44.226Z,20.24
2017-06-11T03:50:24.727Z,20.14
2017-06-11T03:51:05.177Z,20.21
2017-06-11T03:51:45.735Z,20.05
2017-06-11T03:52:26.230Z,20.18
2017-06-11T03:53:06.725Z,20.11
2017-06-11T03:53:47.189Z,20.17
2017-06-11T03:54:27.734Z,20.16
2017-06-11T03:55:08.207Z,20.13
2017-06-11T03:55:48.709Z,20.13
2017-06-11T03:56:29.182Z,20.17
2017-06-11T03:57:09.715Z,20.08
2017-06-11T03:57:50.196Z,20.14
2017-06-11T03:58:30.661Z,20.16
2017-06-11T03:59:11.145Z,20.16
2017-06-11T03:59:51.679Z,20.17
2017-06-11T04:00:32.185Z,20.32
2017-06-11T04:01:12.744Z,20.18
2017-06-11T04:01:53.257Z,20.17
2017-06-11T04:02:33.769Z,20.24
2017-06-11T04:03:14.252Z,20.28
2017-06-11T04:03:54.738Z,20.23
2017-06-11T04:04:35.252Z,20.38
2017-06-11T04:05:15.743Z,20.48
2017-06-11T04:05:56.239Z,20.69
2017-06-11T04:06:36.728Z,20.72
2017-06-11T04:07:17.228Z,20.76
2017-06-11T04:07:57.720Z,20.72
2017-06-11T04:08:38.192Z,20.59
2017-06-11T04:09:18.686Z,20.73
2017-06-11T04:09:59.175Z,20.8
2017-06-11T04:10:39.686Z,20.84
2017-06-11T04:11:20.248Z,20.73
2017-06-11T04:12:00.713Z,20.73
2017-06-11T04:12:41.163Z,20.57
2017-06-11T04:13:21.680Z,20.61
2017-06-11T04:14:02.157Z,20.43
2017-06-11T04:14:42.677Z,20.51
2017-06-11T04:15:23.174Z,20.54
2017-06-11T04:16:03.672Z,20.42
2017-06-11T04:16:44.198Z,20.47
2017-06-11T04:17:24.648Z,20.48
2017-06-11T04:18:05.148Z,20.5
2017-06-11T04:18:45.668Z,20.5
2017-06-11T04:19:26.159Z,20.59
2017-06-11T04:20:06.649Z,20.52
2017-06-11T04:20:47.134Z,20.55
2017-06-11T04:21:27.653Z,20.58
2017-06-11T04:22:08.161Z,20.54
2017-06-11T04:22:48.650Z,20.54
2017-06-11T04:23:29.167Z,20.54
2017-06-11T04:24:09.631Z,20.57
2017-06-11T04:24:50.155Z,20.48
2017-06-11T04:25:30.618Z,20.51
2017-06-11T04:26:11.124Z,20.51
2017-06-11T04:26:51.589Z,20.58
2017-06-11T04:27:32.076Z,20.61
2017-06-11T04:28:12.570Z,20.67
2017-06-11T04:28:53.018Z,20.59
2017-06-11T04:29:33.564Z,20.55
2017-06-11T04:30:14.064Z,20.59
2017-06-11T04:30:54.546Z,20.61
2017-06-11T04:31:35.027Z,20.57
2017-06-11T04:32:15.527Z,20.73
2017-06-11T04:32:56.059Z,20.79
2017-06-11T04:33:36.566Z,20.8
2017-06-11T04:34:17.100Z,20.79
2017-06-11T04:34:57.573Z,20.73
2017-06-11T04:35:38.080Z,20.82
2017-06-11T04:36:18.601Z,20.87
2017-06-11T04:36:59.139Z,21.06
2017-06-11T04:37:39.590Z,20.99
2017-06-11T04:38:20.087Z,21.06
2017-06-11T04:39:00.566Z,21.27
2017-06-11T04:39:41.102Z,21.5
2017-06-11T04:40:21.566Z,22.12
2017-06-11T04:41:02.081Z,22.57
2017-06-11T04:41:42.538Z,22.82
2017-06-11T04:42:23.039Z,22.73
2017-06-11T04:43:03.545Z,22.6
2017-06-11T04:43:44.049Z,22.42
2017-06-11T04:44:24.495Z,22.3
2017-06-11T04:45:05.013Z,22.33
2017-06-11T04:45:45.511Z,22.33
2017-06-11T04:46:26.009Z,22.31
2017-06-11T04:47:06.594Z,22.3
2017-06-11T04:47:47.104Z,22.14
2017-06-11T04:48:27.596Z,21.9
2017-06-11T04:49:08.083Z,21.88
2017-06-11T04:49:48.600Z,21.68
2017-06-11T04:50:29.097Z,21.77
2017-06-11T04:51:09.648Z,21.65
2017-06-11T04:51:50.227Z,21.68
2017-06-11T04:52:30.723Z,21.67
2017-06-11T04:53:11.208Z,21.59
2017-06-11T04:53:51.729Z,21.77
2017-06-11T04:54:32.216Z,21.8
2017-06-11T04:55:12.727Z,22
2017-06-11T04:55:53.243Z,21.92
2017-06-11T04:56:33.699Z,21.68
2017-06-11T04:57:14.197Z,21.72
2017-06-11T04:57:54.664Z,21.68
2017-06-11T04:58:35.170Z,21.77
2017-06-11T04:59:15.645Z,21.69
2017-06-11T04:59:56.207Z,21.71
2017-06-11T05:00:36.691Z,21.79
2017-06-11T05:01:17.247Z,21.71
2017-06-11T05:01:57.699Z,21.86
2017-06-11T05:02:38.204Z,21.67
2017-06-11T05:03:18.730Z,21.58
2017-06-11T05:03:59.207Z,21.47
2017-06-11T05:04:39.724Z,21.53
2017-06-11T05:05:20.213Z,21.43
2017-06-11T05:06:00.745Z,21.47
2017-06-11T05:06:41.266Z,21.47
2017-06-11T05:07:21.835Z,21.43
2017-06-11T05:08:02.678Z,21.47
2017-06-11T05:08:43.075Z,21.43
2017-06-11T05:09:23.624Z,21.29
2017-06-11T05:10:04.199Z,21.28
2017-06-11T05:10:44.652Z,21.21
2017-06-11T05:11:25.146Z,21.19
2017-06-11T05:12:05.646Z,21.22
2017-06-11T05:12:46.117Z,21.19
2017-06-11T05:13:26.653Z,21.22
2017-06-11T05:14:07.314Z,21.24
2017-06-11T05:14:47.812Z,21.31
2017-06-11T05:15:28.266Z,21.61
2017-06-11T05:16:08.790Z,21.54
2017-06-11T05:16:49.230Z,21.64
2017-06-11T05:17:29.713Z,21.62
2017-06-11T05:18:10.320Z,21.53
2017-06-11T05:18:50.833Z,21.54
2017-06-11T05:19:31.316Z,21.46
2017-06-11T05:20:11.769Z,21.5
2017-06-11T05:20:52.307Z,21.64
2017-06-11T05:21:32.781Z,21.62
2017-06-11T05:22:13.264Z,21.64
2017-06-11T05:22:53.811Z,21.75
2017-06-11T05:23:34.367Z,21.8
2017-06-11T05:24:14.878Z,21.84
2017-06-11T05:24:55.419Z,21.71
2017-06-11T05:25:35.860Z,21.8
2017-06-11T05:26:16.384Z,21.79
2017-06-11T05:26:56.892Z,21.72
2017-06-11T05:27:37.453Z,21.72
2017-06-11T05:28:17.965Z,21.77
2017-06-11T05:28:58.420Z,21.71
2017-06-11T05:29:38.910Z,21.72
2017-06-11T05:30:19.422Z,21.91
2017-06-11T05:30:59.929Z,21.94
2017-06-11T05:31:40.417Z,22.07
2017-06-11T05:32:20.923Z,22.18
2017-06-11T05:33:01.417Z,22.18
2017-06-11T05:33:41.917Z,22.15
2017-06-11T05:34:22.379Z,22.2
2017-06-11T05:35:02.856Z,22
2017-06-11T05:35:43.433Z,21.99
2017-06-11T05:36:23.910Z,21.91
2017-06-11T05:37:04.412Z,21.98
2017-06-11T05:37:44.865Z,21.79
2017-06-11T05:38:25.375Z,21.75
2017-06-11T05:39:05.861Z,21.72
2017-06-11T05:39:46.353Z,21.75
2017-06-11T05:40:26.888Z,21.67
2017-06-11T05:41:07.345Z,21.61
2017-06-11T05:41:47.955Z,21.5
2017-06-11T05:42:28.409Z,21.68
2017-06-11T05:43:08.947Z,21.61
2017-06-11T05:43:49.560Z,21.56
2017-06-11T05:44:29.939Z,21.59
2017-06-11T05:45:10.446Z,21.53
2017-06-11T05:45:50.924Z,21.52
2017-06-11T05:46:31.462Z,21.61
2017-06-11T05:47:12.011Z,21.56
2017-06-11T05:47:52.475Z,21.62
2017-06-11T05:48:32.998Z,21.71
2017-06-11T05:49:13.495Z,21.61
2017-06-11T05:49:53.987Z,21.61
2017-06-11T05:50:34.477Z,21.62
2017-06-11T05:51:15.011Z,21.67
2017-06-11T05:51:55.553Z,21.65
2017-06-11T05:52:36.077Z,21.67
2017-06-11T05:53:16.569Z,21.71
2017-06-11T05:53:57.053Z,21.79
2017-06-11T05:54:37.567Z,21.83
2017-06-11T05:55:18.022Z,21.98
2017-06-11T05:55:58.563Z,22.21
2017-06-11T05:56:39.068Z,22.43
2017-06-11T05:57:19.546Z,22.72
2017-06-11T05:58:00.078Z,23.16
2017-06-11T05:58:40.551Z,23.46
2017-06-11T05:59:21.074Z,23.72
2017-06-11T06:00:01.512Z,24.18
2017-06-11T06:00:42.012Z,24.35
2017-06-11T06:01:22.551Z,24.65
2017-06-11T06:02:02.999Z,24.93
2017-06-11T06:02:43.534Z,25.09
2017-06-11T06:03:23.993Z,25.33
2017-06-11T06:04:04.502Z,25.42
2017-06-11T06:04:45.007Z,25.51
2017-06-11T06:05:25.610Z,25.76
2017-06-11T06:06:06.131Z,25.92
2017-06-11T06:06:46.652Z,25.91
2017-06-11T06:07:27.146Z,25.98
2017-06-11T06:08:07.708Z,26.12
2017-06-11T06:08:48.193Z,26.25
2017-06-11T06:09:28.727Z,26.4
2017-06-11T06:10:09.246Z,26.58
2017-06-11T06:10:49.736Z,26.7
2017-06-11T06:11:30.264Z,26.81
2017-06-11T06:12:10.753Z,26.85
2017-06-11T06:12:51.198Z,26.84
2017-06-11T06:13:31.754Z,26.88
2017-06-11T06:14:12.257Z,26.82
2017-06-11T06:14:53.428Z,26.87
2017-06-11T06:15:33.895Z,26.85
2017-06-11T06:16:14.422Z,26.85
2017-06-11T06:16:54.917Z,26.94
2017-06-11T06:17:35.469Z,27
2017-06-11T06:18:15.966Z,27.07
2017-06-11T06:18:56.471Z,27.18
2017-06-11T06:19:36.963Z,27.24
2017-06-11T06:20:17.454Z,27.28
2017-06-11T06:20:58.327Z,27.39
2017-06-11T06:21:38.727Z,27.47
2017-06-11T06:22:19.095Z,27.43
2017-06-11T06:22:59.634Z,27.41
2017-06-11T06:23:40.139Z,27.44
2017-06-11T06:24:20.648Z,27.4
2017-06-11T06:25:01.211Z,27.5
2017-06-11T06:25:41.670Z,27.62
2017-06-11T06:26:22.228Z,27.69
2017-06-11T06:27:02.708Z,27.82
2017-06-11T06:27:43.234Z,27.85
2017-06-11T06:28:23.682Z,27.92
2017-06-11T06:29:04.229Z,28.07
2017-06-11T06:29:44.719Z,28.17
2017-06-11T06:30:25.259Z,28.14
2017-06-11T06:31:05.761Z,28.19
2017-06-11T06:31:46.298Z,28.15
2017-06-11T06:32:26.796Z,28.21
2017-06-11T06:33:07.262Z,28.29
2017-06-11T06:33:47.761Z,28.27
2017-06-11T06:34:28.275Z,27.97
2017-06-11T06:35:08.753Z,28.12
2017-06-11T06:35:49.275Z,28.21
2017-06-11T06:36:29.795Z,28.12
2017-06-11T06:37:10.242Z,28.17
2017-06-11T06:37:50.992Z,28.07
2017-06-11T06:38:31.550Z,28.14
2017-06-11T06:39:12.003Z,28.12
2017-06-11T06:39:52.527Z,28.09
2017-06-11T06:40:33.044Z,28.22
2017-06-11T06:41:13.503Z,28.15
2017-06-11T06:41:54.066Z,27.99
2017-06-11T06:42:34.662Z,28.11
2017-06-11T06:43:15.096Z,28.22
2017-06-11T06:43:55.633Z,28.15
2017-06-11T06:44:36.154Z,28.14
2017-06-11T06:45:16.705Z,28.11
2017-06-11T06:45:57.197Z,28.07
2017-06-11T06:46:37.679Z,27.94
2017-06-11T06:47:18.200Z,28.03
2017-06-11T06:47:58.670Z,28.07
2017-06-11T06:48:39.210Z,28.03
2017-06-11T06:49:19.717Z,28.04
2017-06-11T06:50:00.196Z,28.02
2017-06-11T06:50:40.744Z,27.96
2017-06-11T06:51:21.206Z,27.97
2017-06-11T06:52:01.691Z,27.81
2017-06-11T06:52:42.226Z,27.84
2017-06-11T06:53:22.720Z,27.74
2017-06-11T06:54:03.271Z,27.85
2017-06-11T06:54:43.752Z,27.78
2017-06-11T06:55:24.252Z,27.77
2017-06-11T06:56:04.688Z,27.74
2017-06-11T06:56:45.245Z,27.74
2017-06-11T06:57:25.829Z,27.7
2017-06-11T06:58:06.269Z,27.47
2017-06-11T06:58:46.797Z,27.27
2017-06-11T06:59:27.299Z,27.36
2017-06-11T07:00:07.895Z,27.37
2017-06-11T07:00:48.447Z,27.39
2017-06-11T07:01:28.820Z,27.43
2017-06-11T07:02:09.324Z,27.4
2017-06-11T07:02:49.811Z,27.43
2017-06-11T07:03:30.370Z,27.39
2017-06-11T07:04:10.805Z,27.36
2017-06-11T07:04:51.350Z,27.29
2017-06-11T07:05:31.809Z,27.36
2017-06-11T07:06:12.488Z,27.4
2017-06-11T07:06:52.944Z,27.43
2017-06-11T07:07:33.483Z,27.43
2017-06-11T07:08:14.125Z,27.47
2017-06-11T07:08:54.668Z,27.55
2017-06-11T07:09:35.227Z,27.44
2017-06-11T07:10:15.774Z,27.46
2017-06-11T07:10:56.282Z,27.39
2017-06-11T07:11:36.745Z,27.5
2017-06-11T07:12:17.289Z,27.4
2017-06-11T07:12:57.783Z,27.43
2017-06-11T07:13:38.309Z,27.44
2017-06-11T07:14:18.796Z,27.54
2017-06-11T07:14:59.409Z,27.63
2017-06-11T07:15:39.841Z,27.65
2017-06-11T07:16:20.290Z,27.75
2017-06-11T07:17:00.830Z,27.78
2017-06-11T07:17:41.506Z,27.81
2017-06-11T07:18:22.152Z,27.81
2017-06-11T07:19:02.716Z,27.72
2017-06-11T07:19:43.240Z,27.84
2017-06-11T07:20:23.754Z,27.82
2017-06-11T07:21:04.267Z,27.87
2017-06-11T07:21:44.786Z,27.82
2017-06-11T07:22:25.275Z,27.92
2017-06-11T07:23:05.784Z,27.85
2017-06-11T07:23:46.468Z,27.96
2017-06-11T07:24:27.051Z,28.03
2017-06-11T07:25:08.612Z,28.06
2017-06-11T07:25:48.133Z,28.09
2017-06-11T07:26:28.652Z,28.14
2017-06-11T07:27:09.125Z,27.93
2017-06-11T07:27:49.620Z,27.97
2017-06-11T07:28:30.096Z,28.06
2017-06-11T07:29:10.716Z,28
2017-06-11T07:29:51.136Z,27.97
2017-06-11T07:30:31.674Z,27.99
2017-06-11T07:31:12.162Z,27.99
2017-06-11T07:31:52.667Z,27.82
2017-06-11T07:32:33.169Z,27.85
2017-06-11T07:33:13.715Z,27.94
2017-06-11T07:33:54.199Z,27.88
2017-06-11T07:34:34.693Z,27.87
2017-06-11T07:35:15.163Z,27.94
2017-06-11T07:35:55.653Z,27.96
2017-06-11T07:36:36.147Z,27.87
2017-06-11T07:37:16.674Z,27.82
2017-06-11T07:37:57.179Z,27.81
2017-06-11T07:38:37.648Z,27.96
2017-06-11T07:39:18.165Z,27.96
2017-06-11T07:39:58.709Z,28.04
2017-06-11T07:40:39.185Z,28.04
2017-06-11T07:41:19.697Z,28.02
2017-06-11T07:42:00.198Z,28.07
2017-06-11T07:42:40.675Z,28.07
2017-06-11T07:43:21.233Z,28.11
2017-06-11T07:44:01.726Z,28.09
2017-06-11T07:44:42.243Z,28.03
2017-06-11T07:45:22.716Z,28.17
2017-06-11T07:46:03.214Z,27.97
2017-06-11T07:46:43.698Z,28.07
2017-06-11T07:47:24.284Z,28.04
2017-06-11T07:48:04.784Z,28.06
2017-06-11T07:48:45.264Z,28
2017-06-11T07:49:25.861Z,28.03
2017-06-11T07:50:06.265Z,28.04
2017-06-11T07:50:46.786Z,28.03
2017-06-11T07:51:27.263Z,28
2017-06-11T07:52:07.755Z,27.97
2017-06-11T07:52:48.311Z,27.93
2017-06-11T07:53:28.752Z,27.96
2017-06-11T07:54:09.252Z,27.92
2017-06-11T07:54:49.901Z,27.97
2017-06-11T07:55:30.302Z,27.96
2017-06-11T07:56:10.873Z,28.02
2017-06-11T07:56:51.293Z,27.96
2017-06-11T07:57:31.864Z,27.78
2017-06-11T07:58:12.350Z,27.74
2017-06-11T07:58:53.460Z,27.57
2017-06-11T07:59:34.204Z,27.79
2017-06-11T08:00:14.820Z,27.79
2017-06-11T08:00:55.743Z,27.78
2017-06-11T08:01:36.072Z,27.5
2017-06-11T08:02:16.564Z,27.55
2017-06-11T08:02:57.088Z,27.57
2017-06-11T08:03:37.570Z,27.67
2017-06-11T08:04:18.060Z,27.65
2017-06-11T08:04:58.603Z,27.62
2017-06-11T08:05:39.119Z,27.54
2017-06-11T08:06:19.567Z,27.59
2017-06-11T08:07:00.091Z,27.63
2017-06-11T08:07:40.594Z,27.66
2017-06-11T08:08:21.307Z,27.77
2017-06-11T08:09:01.713Z,27.74
2017-06-11T08:09:42.509Z,27.77
2017-06-11T08:10:23.401Z,27.69
2017-06-11T08:11:03.565Z,27.74
2017-06-11T08:11:44.042Z,27.7
2017-06-11T08:12:24.621Z,27.7
2017-06-11T08:13:05.031Z,27.7
2017-06-11T08:13:45.655Z,27.67
2017-06-11T08:14:26.084Z,27.7
2017-06-11T08:15:06.624Z,27.63
2017-06-11T08:15:47.093Z,27.67
2017-06-11T08:16:27.587Z,27.54
2017-06-11T08:17:08.103Z,27.46
2017-06-11T08:17:48.619Z,27.54
2017-06-11T08:18:29.116Z,27.59
2017-06-11T08:19:09.644Z,27.59
2017-06-11T08:19:50.089Z,27.55
2017-06-11T08:20:30.620Z,27.43
2017-06-11T08:21:11.134Z,27.44
2017-06-11T08:21:51.638Z,27.47
2017-06-11T08:22:32.134Z,27.5
2017-06-11T08:23:12.638Z,27.49
2017-06-11T08:23:53.178Z,27.46
2017-06-11T08:24:33.729Z,27.59
2017-06-11T08:25:14.242Z,27.46
2017-06-11T08:25:54.720Z,27.39
2017-06-11T08:26:35.214Z,27.41
2017-06-11T08:27:15.724Z,27.39
2017-06-11T08:27:56.339Z,27.37
2017-06-11T08:28:36.802Z,27.36
2017-06-11T08:29:17.235Z,27.32
2017-06-11T08:29:57.740Z,27.25
2017-06-11T08:30:38.238Z,27.12
2017-06-11T08:31:18.728Z,27.13
2017-06-11T08:31:59.242Z,27.1
2017-06-11T08:32:39.697Z,27.17
2017-06-11T08:33:20.200Z,27.18
2017-06-11T08:34:00.705Z,27.04
2017-06-11T08:34:41.285Z,27.07
2017-06-11T08:35:21.722Z,27.07
2017-06-11T08:36:02.227Z,27.07
2017-06-11T08:36:42.778Z,27.14
2017-06-11T08:37:23.383Z,27.02
2017-06-11T08:38:03.741Z,26.84
2017-06-11T08:38:44.244Z,26.92
2017-06-11T08:39:24.896Z,26.87
2017-06-11T08:40:05.461Z,26.84
2017-06-11T08:40:45.892Z,26.84
2017-06-11T08:41:26.406Z,26.92
2017-06-11T08:42:06.909Z,27
2017-06-11T08:42:47.456Z,27.04
2017-06-11T08:43:28.086Z,26.97
2017-06-11T08:44:08.478Z,26.97
2017-06-11T08:44:49.219Z,26.97
2017-06-11T08:45:29.706Z,27
2017-06-11T08:46:10.219Z,26.97